Time;durP1;ratioP1;P1;durP2;ratioP2;P2;SDS_P1;SDS_P2;PMS_P1;PMS_P2;Temp;Humidity;BMP_temperature;BMP_pressure;BME280_temperature;BME280_humidity;BME280_pressure;Samples;Min_cycle;Max_cycle;Signal;HPM_P1;HPM_P2
2021/12/27 00:02:21;;;;;;;;;;;6.60;86.60;;;;;;5002585;28;88462;-46
2021/12/27 00:04:47;;;;;;;;;;;6.60;86.60;;;;;;5001015;28;88210;-46
2021/12/27 00:07:14;;;;;;;;;;;6.60;86.60;;;;;;5002597;28;89616;-46
2021/12/27 00:09:40;;;;;;;;;;;6.60;86.50;;;;;;5002496;28;91240;-46
2021/12/27 00:12:06;;;;;;;;;;;6.60;86.60;;;;;;5006219;28;87125;-46
2021/12/27 00:14:32;;;;;;;;;;;6.60;86.50;;;;;;5005684;28;88999;-46
2021/12/27 00:16:57;;;;;;;;;;;6.60;86.50;;;;;;5005869;28;89637;-47
2021/12/27 00:19:23;;;;;;;;;;;6.60;86.50;;;;;;5005933;28;87166;-48
2021/12/27 00:21:48;;;;;;;;;;;6.60;86.50;;;;;;5009100;28;87891;-47
2021/12/27 00:24:14;;;;;;;;;;;6.60;86.50;;;;;;5006005;28;86907;-45
2021/12/27 00:26:39;;;;;;;;;;;6.60;86.50;;;;;;5005850;28;89190;-46
2021/12/27 00:29:05;;;;;;;;;;;6.60;86.60;;;;;;5004993;28;90519;-46
2021/12/27 00:31:30;;;;;;;;;;;6.60;86.60;;;;;;5006139;28;87140;-46
2021/12/27 00:33:56;;;;;;;;;;;6.60;86.60;;;;;;5005920;28;89017;-47
2021/12/27 00:36:21;;;;;;;;;;;6.60;86.60;;;;;;5005457;28;89807;-47
2021/12/27 00:38:47;;;;;;;;;;;6.60;86.60;;;;;;5005712;28;87239;-46
2021/12/27 00:41:13;;;;;;;;;;;6.60;86.70;;;;;;5005815;28;88761;-45
2021/12/27 00:43:38;;;;;;;;;;;6.60;86.70;;;;;;5008041;28;89188;-46
2021/12/27 00:46:04;;;;;;;;;;;6.60;86.60;;;;;;5006291;28;89080;-45
2021/12/27 00:48:29;;;;;;;;;;;6.60;86.50;;;;;;5005211;28;89770;-46
2021/12/27 00:50:55;;;;;;;;;;;6.60;86.50;;;;;;5005706;28;87122;-48
2021/12/27 00:53:20;;;;;;;;;;;6.60;86.40;;;;;;5004978;28;88897;-48
2021/12/27 00:55:46;;;;;;;;;;;6.60;86.40;;;;;;5005059;28;89169;-46
2021/12/27 00:58:11;;;;;;;;;;;6.60;86.40;;;;;;5005283;28;87152;-45
2021/12/27 01:00:37;;;;;;;;;;;6.60;86.40;;;;;;5005415;28;88693;-47
2021/12/27 01:03:03;;;;;;;;;;;6.60;86.50;;;;;;5004922;28;90197;-47
2021/12/27 01:05:29;;;;;;;;;;;6.60;86.50;;;;;;5008329;28;87057;-46
2021/12/27 01:07:55;;;;;;;;;;;6.60;86.40;;;;;;5005028;28;89415;-46
2021/12/27 01:13:18;;;;;;;;;;;6.60;86.50;;;;;;5005370;28;87003;-48
2021/12/27 01:18:11;;;;;;;;;;;6.60;86.40;;;;;;5004621;28;88063;-46
2021/12/27 01:20:37;;;;;;;;;;;6.60;86.40;;;;;;5004930;28;89893;-47
2021/12/27 01:23:03;;;;;;;;;;;6.60;86.40;;;;;;5004666;28;89801;-47
2021/12/27 01:25:28;;;;;;;;;;;6.70;86.50;;;;;;5004712;28;87091;-46
2021/12/27 01:27:54;;;;;;;;;;;6.70;86.50;;;;;;5007511;28;88975;-46
2021/12/27 01:30:21;;;;;;;;;;;6.70;86.50;;;;;;5004787;28;87157;-46
2021/12/27 01:32:53;;;;;;;;;;;6.70;86.50;;;;;;5004919;28;89174;-46
2021/12/27 01:35:19;;;;;;;;;;;6.60;86.40;;;;;;5005157;28;89058;-47
2021/12/27 01:37:45;;;;;;;;;;;6.70;86.40;;;;;;5004778;28;87151;-46
2021/12/27 01:40:12;;;;;;;;;;;6.70;86.50;;;;;;5004867;28;87982;-46
2021/12/27 01:42:57;;;;;;;;;;;6.70;86.50;;;;;;5003701;28;91074;-46
2021/12/27 01:45:24;;;;;;;;;;;6.70;86.50;;;;;;5004632;28;87143;-46
2021/12/27 01:47:49;;;;;;;;;;;6.70;86.40;;;;;;5004710;28;88780;-46
2021/12/27 01:50:15;;;;;;;;;;;6.70;86.40;;;;;;5007072;28;88722;-46
2021/12/27 01:52:40;;;;;;;;;;;6.70;86.40;;;;;;5004245;28;88989;-45
2021/12/27 01:55:06;;;;;;;;;;;6.70;86.30;;;;;;5004138;28;89611;-46
2021/12/27 01:57:31;;;;;;;;;;;6.70;86.50;;;;;;5004488;28;87048;-46
2021/12/27 01:59:57;;;;;;;;;;;6.70;86.40;;;;;;5005078;28;89245;-46
2021/12/27 02:02:22;;;;;;;;;;;6.70;86.40;;;;;;5004426;28;88200;-47
2021/12/27 02:04:48;;;;;;;;;;;6.70;86.50;;;;;;5004367;28;87150;-46
2021/12/27 02:07:13;;;;;;;;;;;6.70;86.50;;;;;;5003482;28;88869;-45
2021/12/27 02:09:49;;;;;;;;;;;6.70;86.40;;;;;;5006842;28;89849;-48
2021/12/27 02:12:15;;;;;;;;;;;6.70;86.50;;;;;;5004645;28;89216;-46
2021/12/27 02:14:40;;;;;;;;;;;6.70;86.50;;;;;;5003459;28;90080;-46
2021/12/27 02:17:06;;;;;;;;;;;6.70;86.50;;;;;;5004450;28;87006;-48
2021/12/27 02:19:34;;;;;;;;;;;6.70;86.40;;;;;;5004216;28;88969;-47
2021/12/27 02:22:00;;;;;;;;;;;6.70;86.30;;;;;;5004027;28;89483;-46
2021/12/27 02:24:25;;;;;;;;;;;6.70;86.30;;;;;;5004771;28;86284;-46
2021/12/27 02:26:51;;;;;;;;;;;6.70;86.40;;;;;;5004167;28;88293;-47
2021/12/27 02:29:17;;;;;;;;;;;6.70;86.30;;;;;;5003663;28;89606;-47
2021/12/27 02:31:43;;;;;;;;;;;6.70;86.20;;;;;;5005585;28;87983;-46
2021/12/27 02:34:10;;;;;;;;;;;6.70;86.20;;;;;;5003625;28;89807;-48
2021/12/27 02:36:35;;;;;;;;;;;6.70;86.20;;;;;;5003829;28;87267;-48
2021/12/27 02:39:01;;;;;;;;;;;6.70;86.20;;;;;;5003978;28;88327;-47
2021/12/27 02:41:26;;;;;;;;;;;6.70;86.10;;;;;;5003427;28;89409;-46
2021/12/27 02:43:52;;;;;;;;;;;6.70;86.10;;;;;;5003752;28;87095;-46
2021/12/27 02:46:17;;;;;;;;;;;6.70;86.10;;;;;;5003883;28;88969;-46
2021/12/27 02:48:48;;;;;;;;;;;6.70;86.10;;;;;;5003921;28;89063;-46
2021/12/27 02:51:16;;;;;;;;;;;6.70;86.10;;;;;;5003739;28;87129;-47
2021/12/27 02:53:44;;;;;;;;;;;6.70;86.20;;;;;;5006213;28;89266;-45
2021/12/27 02:56:09;;;;;;;;;;;6.80;86.30;;;;;;5003011;28;88114;-46
2021/12/27 02:58:35;;;;;;;;;;;6.70;86.20;;;;;;5003744;28;89732;-46
2021/12/27 03:01:12;;;;;;;;;;;6.80;86.30;;;;;;5003361;28;89136;-46
2021/12/27 03:03:38;;;;;;;;;;;6.70;86.20;;;;;;5003462;28;87124;-46
2021/12/27 03:06:04;;;;;;;;;;;6.70;86.10;;;;;;5003270;28;89495;-46
2021/12/27 03:08:30;;;;;;;;;;;6.70;86.10;;;;;;5003116;28;89270;-46
2021/12/27 03:10:57;;;;;;;;;;;6.70;86.10;;;;;;5003358;28;86968;-46
2021/12/27 03:13:25;;;;;;;;;;;6.70;86.10;;;;;;5003953;28;88915;-47
2021/12/27 03:16:02;;;;;;;;;;;6.70;86.10;;;;;;5005557;28;89547;-46
2021/12/27 03:18:27;;;;;;;;;;;6.70;86.00;;;;;;5003558;28;88988;-46
2021/12/27 03:20:54;;;;;;;;;;;6.80;86.10;;;;;;5002395;28;90644;-48
2021/12/27 03:23:20;;;;;;;;;;;6.70;86.00;;;;;;5003344;28;87114;-46
2021/12/27 03:25:45;;;;;;;;;;;6.70;86.00;;;;;;5003290;28;88120;-47
2021/12/27 03:28:11;;;;;;;;;;;6.80;86.00;;;;;;5003055;28;88555;-46
2021/12/27 03:30:37;;;;;;;;;;;6.70;85.90;;;;;;5003378;28;87174;-47
2021/12/27 03:33:03;;;;;;;;;;;6.80;86.00;;;;;;5003245;28;88006;-47
2021/12/27 03:35:35;;;;;;;;;;;6.70;85.90;;;;;;5002781;28;89675;-46
2021/12/27 03:38:00;;;;;;;;;;;6.80;85.90;;;;;;5006516;28;86178;-46
2021/12/27 03:40:26;;;;;;;;;;;6.80;85.80;;;;;;5002725;28;90142;-46
2021/12/27 03:42:52;;;;;;;;;;;6.80;85.70;;;;;;5003351;28;87146;-46
2021/12/27 03:45:18;;;;;;;;;;;6.70;85.70;;;;;;5005733;28;90449;-46
2021/12/27 03:47:44;;;;;;;;;;;6.80;85.80;;;;;;5006080;28;89604;-46
2021/12/27 03:50:10;;;;;;;;;;;6.80;85.70;;;;;;5006455;28;87092;-46
2021/12/27 03:52:37;;;;;;;;;;;6.80;85.70;;;;;;5006440;28;88911;-46
2021/12/27 03:55:03;;;;;;;;;;;6.80;85.70;;;;;;5006137;28;89595;-46
2021/12/27 03:57:31;;;;;;;;;;;6.80;85.70;;;;;;5006585;28;86871;-45
2021/12/27 04:00:27;;;;;;;;;;;6.80;85.70;;;;;;5008740;28;88733;-45
2021/12/27 04:02:57;;;;;;;;;;;6.80;85.70;;;;;;5006932;28;86813;-48
2021/12/27 04:05:22;;;;;;;;;;;6.80;85.70;;;;;;5006250;28;88029;-47
2021/12/27 04:07:56;;;;;;;;;;;6.80;85.70;;;;;;5005911;28;89637;-46
2021/12/27 04:10:22;;;;;;;;;;;6.80;85.70;;;;;;5005667;28;87892;-46
2021/12/27 04:12:48;;;;;;;;;;;6.80;85.60;;;;;;5006478;28;89960;-46
2021/12/27 04:15:13;;;;;;;;;;;6.80;85.60;;;;;;5005298;28;88285;-47
2021/12/27 04:17:39;;;;;;;;;;;6.80;85.60;;;;;;5006245;28;87125;-46
2021/12/27 04:20:04;;;;;;;;;;;6.80;85.60;;;;;;5008660;28;88747;-47
2021/12/27 04:22:33;;;;;;;;;;;6.80;85.60;;;;;;5006096;28;87112;-47
2021/12/27 04:25:02;;;;;;;;;;;6.80;85.60;;;;;;5006051;28;88735;-47
2021/12/27 04:27:27;;;;;;;;;;;6.80;85.70;;;;;;5005912;28;87790;-46
2021/12/27 04:29:53;;;;;;;;;;;6.80;85.60;;;;;;5006133;28;87038;-46
2021/12/27 04:32:19;;;;;;;;;;;6.80;85.60;;;;;;5005842;28;87967;-46
2021/12/27 04:34:44;;;;;;;;;;;6.80;85.70;;;;;;5004925;28;90365;-47
2021/12/27 04:37:10;;;;;;;;;;;6.80;85.60;;;;;;5006009;28;87147;-47
2021/12/27 04:39:35;;;;;;;;;;;6.80;85.70;;;;;;5006101;28;87436;-46
2021/12/27 04:42:01;;;;;;;;;;;6.80;85.60;;;;;;5008123;28;89334;-46
2021/12/27 04:44:27;;;;;;;;;;;6.80;85.60;;;;;;5005628;28;88757;-45
2021/12/27 04:46:52;;;;;;;;;;;6.80;85.60;;;;;;5005103;28;89410;-45
2021/12/27 04:49:18;;;;;;;;;;;6.80;85.60;;;;;;5005652;28;87064;-48
2021/12/27 04:51:43;;;;;;;;;;;6.80;85.60;;;;;;5006212;28;89161;-46
2021/12/27 04:54:09;;;;;;;;;;;6.80;85.50;;;;;;5005060;28;89873;-47
2021/12/27 04:56:35;;;;;;;;;;;6.80;85.60;;;;;;5004800;28;87019;-46
2021/12/27 04:59:00;;;;;;;;;;;6.80;85.50;;;;;;5005190;28;88055;-46
2021/12/27 05:01:26;;;;;;;;;;;6.80;85.50;;;;;;5005252;28;89682;-46
2021/12/27 05:03:51;;;;;;;;;;;6.80;85.50;;;;;;5008276;28;87132;-47
2021/12/27 05:06:17;;;;;;;;;;;6.80;85.50;;;;;;5004976;28;89921;-46
2021/12/27 05:08:43;;;;;;;;;;;6.80;85.50;;;;;;5005298;28;87131;-45
2021/12/27 05:11:08;;;;;;;;;;;6.80;85.50;;;;;;5005249;28;88864;-46
2021/12/27 05:13:35;;;;;;;;;;;6.80;85.50;;;;;;5005214;28;89620;-47
2021/12/27 05:16:01;;;;;;;;;;;6.80;85.50;;;;;;5005502;28;86463;-46
2021/12/27 05:18:26;;;;;;;;;;;6.80;85.50;;;;;;5005109;28;88128;-46
2021/12/27 05:20:52;;;;;;;;;;;6.80;85.50;;;;;;5004725;28;89522;-47
2021/12/27 05:23:18;;;;;;;;;;;6.80;85.50;;;;;;5004333;28;88008;-46
2021/12/27 05:25:43;;;;;;;;;;;6.80;85.60;;;;;;5007490;28;89624;-50
2021/12/27 05:28:09;;;;;;;;;;;6.80;85.50;;;;;;5004991;28;87162;-46
2021/12/27 05:30:35;;;;;;;;;;;6.80;85.50;;;;;;5005142;28;88663;-46
2021/12/27 05:33:01;;;;;;;;;;;6.90;85.60;;;;;;5004599;28;90402;-46
2021/12/27 05:35:27;;;;;;;;;;;6.80;85.50;;;;;;5005177;28;87092;-46
2021/12/27 05:37:52;;;;;;;;;;;6.80;86.10;;;;;;5004989;28;88794;-46
2021/12/27 05:40:19;;;;;;;;;;;6.80;85.50;;;;;;5004951;28;89004;-47
2021/12/27 05:42:45;;;;;;;;;;;6.80;85.50;;;;;;5004753;28;87068;-47
2021/12/27 05:45:10;;;;;;;;;;;6.80;85.50;;;;;;5004810;28;89193;-47
2021/12/27 05:47:36;;;;;;;;;;;6.90;85.50;;;;;;5006728;28;88279;-46
2021/12/27 05:50:03;;;;;;;;;;;6.80;85.50;;;;;;5004629;28;89885;-48
2021/12/27 05:52:29;;;;;;;;;;;6.80;85.50;;;;;;5004271;28;90104;-45
2021/12/27 05:54:54;;;;;;;;;;;6.80;85.50;;;;;;5004540;28;87122;-46
2021/12/27 05:57:20;;;;;;;;;;;6.80;85.50;;;;;;5003155;28;90832;-46
2021/12/27 05:59:46;;;;;;;;;;;6.80;85.50;;;;;;5004244;28;89495;-46
2021/12/27 06:02:11;;;;;;;;;;;6.90;85.60;;;;;;5004720;28;87121;-46
2021/12/27 06:04:37;;;;;;;;;;;6.80;85.50;;;;;;5004904;28;88884;-46
2021/12/27 06:07:02;;;;;;;;;;;6.90;85.60;;;;;;5002768;28;88986;-46
2021/12/27 06:09:28;;;;;;;;;;;6.90;85.50;;;;;;5006978;28;87225;-45
2021/12/27 06:11:53;;;;;;;;;;;6.90;85.60;;;;;;5003367;28;90787;-46
2021/12/27 06:14:19;;;;;;;;;;;6.90;85.70;;;;;;5004590;28;87114;-46
2021/12/27 06:16:44;;;;;;;;;;;6.90;85.80;;;;;;5004287;28;87435;-47
2021/12/27 06:19:10;;;;;;;;;;;6.90;85.90;;;;;;5003941;28;89348;-46
2021/12/27 06:21:36;;;;;;;;;;;6.90;85.90;;;;;;5004158;28;87139;-46
2021/12/27 06:24:02;;;;;;;;;;;6.90;85.80;;;;;;5004064;28;89046;-47
2021/12/27 06:26:28;;;;;;;;;;;6.90;85.80;;;;;;5003463;28;89903;-46
2021/12/27 06:28:53;;;;;;;;;;;6.90;85.90;;;;;;5007768;28;86389;-46
2021/12/27 06:31:20;;;;;;;;;;;6.90;85.90;;;;;;5003598;28;88901;-46
2021/12/27 06:33:45;;;;;;;;;;;6.90;85.90;;;;;;5004018;28;87114;-48
2021/12/27 06:36:11;;;;;;;;;;;6.90;85.90;;;;;;5003502;28;88890;-47
2021/12/27 06:38:36;;;;;;;;;;;6.90;85.90;;;;;;5003621;28;89662;-46
2021/12/27 06:41:02;;;;;;;;;;;6.90;85.90;;;;;;5003695;28;87171;-46
2021/12/27 06:43:30;;;;;;;;;;;6.90;86.00;;;;;;5003791;28;89057;-47
2021/12/27 06:45:56;;;;;;;;;;;6.90;85.90;;;;;;5003305;28;89351;-46
2021/12/27 06:48:22;;;;;;;;;;;6.90;85.90;;;;;;5003854;28;87080;-46
2021/12/27 06:50:47;;;;;;;;;;;6.90;85.90;;;;;;5006675;28;87426;-45
2021/12/27 06:53:13;;;;;;;;;;;6.90;85.90;;;;;;5004178;28;86397;-47
2021/12/27 06:55:38;;;;;;;;;;;6.90;85.80;;;;;;5003919;28;86902;-46
2021/12/27 06:58:04;;;;;;;;;;;6.90;85.80;;;;;;5003381;28;90201;-46
2021/12/27 07:00:29;;;;;;;;;;;6.90;85.80;;;;;;5002918;28;88138;-45
2021/12/27 07:02:55;;;;;;;;;;;6.90;85.80;;;;;;5003667;28;89691;-48
2021/12/27 07:05:20;;;;;;;;;;;6.90;85.70;;;;;;5003027;28;89849;-46
2021/12/27 07:07:46;;;;;;;;;;;6.90;85.70;;;;;;5003586;28;87002;-46
2021/12/27 07:10:13;;;;;;;;;;;6.90;85.70;;;;;;5003405;28;88819;-45
2021/12/27 07:12:39;;;;;;;;;;;7.00;85.70;;;;;;5005985;28;89368;-46
2021/12/27 07:15:05;;;;;;;;;;;7.00;85.80;;;;;;5002876;28;89132;-45
2021/12/27 07:17:31;;;;;;;;;;;7.00;85.80;;;;;;5003394;28;88583;-46
2021/12/27 07:19:56;;;;;;;;;;;6.90;85.80;;;;;;5003002;28;86980;-46
2021/12/27 07:22:22;;;;;;;;;;;7.00;86.00;;;;;;5003419;28;88834;-46
2021/12/27 07:24:48;;;;;;;;;;;7.00;86.00;;;;;;5002150;28;90380;-46
2021/12/27 07:27:13;;;;;;;;;;;7.00;85.90;;;;;;5003042;28;87050;-45
2021/12/27 07:29:39;;;;;;;;;;;7.00;86.00;;;;;;5003551;28;87382;-47
2021/12/27 07:32:05;;;;;;;;;;;7.00;85.90;;;;;;5003112;28;88080;-46
2021/12/27 07:34:30;;;;;;;;;;;7.00;85.90;;;;;;5006076;28;87148;-47
2021/12/27 07:36:56;;;;;;;;;;;7.00;85.90;;;;;;5002703;28;89676;-46
2021/12/27 07:39:23;;;;;;;;;;;7.00;85.90;;;;;;5003164;28;87173;-46
2021/12/27 07:41:49;;;;;;;;;;;7.00;85.90;;;;;;5003507;28;88827;-46
2021/12/27 07:44:15;;;;;;;;;;;7.00;85.90;;;;;;5002615;28;89284;-46
2021/12/27 07:46:42;;;;;;;;;;;7.00;85.90;;;;;;5002835;28;87130;-46
2021/12/27 07:49:08;;;;;;;;;;;7.00;85.90;;;;;;5002559;28;89061;-46
2021/12/27 07:51:34;;;;;;;;;;;7.00;86.00;;;;;;5002788;28;88187;-46
2021/12/27 07:53:59;;;;;;;;;;;7.00;86.00;;;;;;5003168;28;87179;-46
2021/12/27 07:56:25;;;;;;;;;;;7.00;86.00;;;;;;5005551;28;88954;-46
2021/12/27 07:58:50;;;;;;;;;;;7.00;86.20;;;;;;5002883;28;87109;-46
2021/12/27 08:01:16;;;;;;;;;;;7.00;86.20;;;;;;5002885;28;88998;-46
2021/12/27 08:03:42;;;;;;;;;;;7.00;86.40;;;;;;5002669;28;88107;-46
2021/12/27 08:06:08;;;;;;;;;;;7.00;86.30;;;;;;5003073;28;86437;-45
2021/12/27 08:08:33;;;;;;;;;;;7.00;86.50;;;;;;5002710;28;88324;-46
2021/12/27 08:10:59;;;;;;;;;;;7.00;86.40;;;;;;5001940;28;90035;-46
2021/12/27 08:13:24;;;;;;;;;;;7.00;86.60;;;;;;5002241;28;88198;-45
2021/12/27 08:15:51;;;;;;;;;;;7.00;86.70;;;;;;5004635;28;88277;-46
2021/12/27 08:18:16;;;;;;;;;;;7.00;86.40;;;;;;5002825;28;87095;-46
2021/12/27 08:20:42;;;;;;;;;;;7.10;86.40;;;;;;5002619;28;88795;-45
2021/12/27 08:23:08;;;;;;;;;;;7.10;86.90;;;;;;5000934;28;91715;-46
2021/12/27 08:25:33;;;;;;;;;;;7.00;86.50;;;;;;5002527;28;87091;-46
2021/12/27 08:28:00;;;;;;;;;;;7.10;86.40;;;;;;5002633;28;86943;-46
2021/12/27 08:30:26;;;;;;;;;;;7.10;87.30;;;;;;5003778;28;89075;-46
2021/12/27 08:32:53;;;;;;;;;;;7.10;87.40;;;;;;5006003;28;87135;-46
2021/12/27 08:35:20;;;;;;;;;;;7.10;87.70;;;;;;5005945;28;87702;-45
2021/12/27 08:37:45;;;;;;;;;;;7.10;87.30;;;;;;5007623;28;90623;-46
2021/12/27 08:40:11;;;;;;;;;;;7.10;87.80;;;;;;5005350;28;89666;-45
2021/12/27 08:42:36;;;;;;;;;;;7.10;87.30;;;;;;5005540;28;88724;-45
2021/12/27 08:45:03;;;;;;;;;;;7.10;87.30;;;;;;5005886;28;87066;-48
2021/12/27 08:47:29;;;;;;;;;;;7.10;87.40;;;;;;5005666;28;88756;-46
2021/12/27 08:49:55;;;;;;;;;;;7.10;88.10;;;;;;5005101;28;89484;-46
2021/12/27 08:52:21;;;;;;;;;;;7.20;87.40;;;;;;5005694;28;86861;-45
2021/12/27 08:54:46;;;;;;;;;;;7.20;87.60;;;;;;5005952;28;88803;-46
2021/12/27 08:57:12;;;;;;;;;;;7.10;87.50;;;;;;5005194;28;89388;-45
2021/12/27 08:59:38;;;;;;;;;;;7.20;87.70;;;;;;5008445;28;86915;-46
2021/12/27 09:02:04;;;;;;;;;;;7.20;87.80;;;;;;5004709;28;90747;-46
2021/12/27 09:04:30;;;;;;;;;;;7.20;87.90;;;;;;5005491;28;87095;-46
2021/12/27 09:06:55;;;;;;;;;;;7.20;87.70;;;;;;5005411;28;88767;-46
2021/12/27 09:09:21;;;;;;;;;;;7.20;87.70;;;;;;5004925;28;89555;-46
2021/12/27 09:11:47;;;;;;;;;;;7.20;87.80;;;;;;5005455;28;87123;-46
2021/12/27 09:14:13;;;;;;;;;;;7.20;87.70;;;;;;5005241;28;89006;-46
2021/12/27 09:16:39;;;;;;;;;;;7.20;87.80;;;;;;5002862;28;90946;-46
2021/12/27 09:19:04;;;;;;;;;;;7.20;88.00;;;;;;5005648;28;86364;-45
2021/12/27 09:21:30;;;;;;;;;;;7.30;88.40;;;;;;5007581;28;88468;-46
2021/12/27 09:23:55;;;;;;;;;;;7.20;88.30;;;;;;5005041;28;87157;-46
2021/12/27 09:26:21;;;;;;;;;;;7.30;88.20;;;;;;5004401;28;87822;-46
2021/12/27 09:28:46;;;;;;;;;;;7.30;88.20;;;;;;5004773;28;89870;-45
2021/12/27 09:31:12;;;;;;;;;;;7.30;88.20;;;;;;5004997;28;87118;-46
2021/12/27 09:33:37;;;;;;;;;;;7.30;88.30;;;;;;5004969;28;88654;-47
2021/12/27 09:36:03;;;;;;;;;;;7.30;88.30;;;;;;5004502;28;90393;-46
2021/12/27 09:38:29;;;;;;;;;;;7.30;88.40;;;;;;5004902;28;87050;-45
2021/12/27 09:40:55;;;;;;;;;;;7.30;88.60;;;;;;5004589;28;89032;-46
2021/12/27 09:43:22;;;;;;;;;;;7.30;88.70;;;;;;5007755;28;88215;-46
2021/12/27 09:45:47;;;;;;;;;;;7.30;88.80;;;;;;5003471;28;86965;-46
2021/12/27 09:48:13;;;;;;;;;;;7.30;88.80;;;;;;5004046;28;88198;-42
2021/12/27 09:50:45;;;;;;;;;;;7.30;89.10;;;;;;5003935;28;88054;-46
2021/12/27 09:53:11;;;;;;;;;;;7.30;90.20;;;;;;5004740;28;89057;-47
2021/12/27 09:55:37;;;;;;;;;;;7.30;90.30;;;;;;5004299;28;89564;-43
2021/12/27 09:58:02;;;;;;;;;;;7.30;90.30;;;;;;5004374;28;87184;-44
2021/12/27 10:00:28;;;;;;;;;;;7.30;90.40;;;;;;5004581;28;88611;-44
2021/12/27 10:02:55;;;;;;;;;;;7.40;90.30;;;;;;5004096;28;89302;-44
2021/12/27 10:05:21;;;;;;;;;;;7.50;90.20;;;;;;5007279;28;87172;-44
2021/12/27 10:07:47;;;;;;;;;;;7.50;90.20;;;;;;5002989;28;88683;-44
2021/12/27 10:10:13;;;;;;;;;;;7.60;90.00;;;;;;5003067;28;87329;-48
2021/12/27 10:12:39;;;;;;;;;;;7.60;90.00;;;;;;5004317;28;89162;-49
2021/12/27 10:15:06;;;;;;;;;;;7.70;89.30;;;;;;5002881;28;88997;-53
2021/12/27 10:17:34;;;;;;;;;;;7.70;89.60;;;;;;5004463;28;87028;-45
2021/12/27 10:20:10;;;;;;;;;;;7.80;89.50;;;;;;5003932;28;87879;-46
2021/12/27 10:22:38;;;;;;;;;;;7.80;89.20;;;;;;5003276;28;89654;-51
2021/12/27 10:25:07;;;;;;;;;;;7.80;89.20;;;;;;5007277;28;87111;-49
2021/12/27 10:27:35;;;;;;;;;;;7.80;89.30;;;;;;5003745;28;89238;-46
2021/12/27 10:30:08;;;;;;;;;;;7.90;89.30;;;;;;5003942;28;87241;-45
2021/12/27 10:32:34;;;;;;;;;;;7.90;89.10;;;;;;5004481;28;90232;-42
2021/12/27 10:35:04;;;;;;;;;;;8.00;89.10;;;;;;5003679;28;88756;-58
2021/12/27 10:37:31;;;;;;;;;;;8.00;88.70;;;;;;5003843;28;87055;-48
2021/12/27 10:40:05;;;;;;;;;;;8.10;88.50;;;;;;5003365;28;88804;-53
2021/12/27 10:42:35;;;;;;;;;;;8.20;87.60;;;;;;5003721;28;89590;-42
2021/12/27 10:45:16;;;;;;;;;;;8.20;87.40;;;;;;5006958;28;87213;-45
2021/12/27 10:47:45;;;;;;;;;;;8.20;87.80;;;;;;5026614;28;87451;-46
2021/12/27 10:50:17;;;;;;;;;;;8.20;87.70;;;;;;5023685;28;87112;-45
2021/12/27 10:52:50;;;;;;;;;;;8.20;87.70;;;;;;5023093;28;89281;-46
2021/12/27 10:55:18;;;;;;;;;;;8.20;88.30;;;;;;5023201;28;90097;-48
2021/12/27 10:57:43;;;;;;;;;;;8.20;87.70;;;;;;5023988;28;86373;-46
2021/12/27 11:00:22;;;;;;;;;;;8.20;87.60;;;;;;5023702;28;88382;-42
2021/12/27 11:02:48;;;;;;;;;;;8.20;87.60;;;;;;5023079;28;89375;-46
2021/12/27 11:05:23;;;;;;;;;;;8.20;87.60;;;;;;5022902;28;88058;-46
2021/12/27 11:07:49;;;;;;;;;;;8.20;87.70;;;;;;5023477;28;89919;-45
2021/12/27 11:10:15;;;;;;;;;;;8.30;87.60;;;;;;5025883;28;89680;-47
2021/12/27 11:12:40;;;;;;;;;;;8.30;87.10;;;;;;5023520;28;88044;-45
2021/12/27 11:15:09;;;;;;;;;;;8.30;86.90;;;;;;5022696;28;89518;-45
2021/12/27 11:17:36;;;;;;;;;;;8.30;86.90;;;;;;5023413;28;87010;-45
2021/12/27 11:20:02;;;;;;;;;;;8.20;87.00;;;;;;5023153;28;89142;-48
2021/12/27 11:22:28;;;;;;;;;;;8.30;87.20;;;;;;5023199;28;90248;-45
2021/12/27 11:24:53;;;;;;;;;;;8.30;86.60;;;;;;5023273;28;87078;-48
2021/12/27 11:27:19;;;;;;;;;;;8.30;86.40;;;;;;5023210;28;89292;-47
2021/12/27 11:30:03;;;;;;;;;;;8.20;86.10;;;;;;5021919;28;90275;-48
2021/12/27 11:32:28;;;;;;;;;;;8.30;86.10;;;;;;5026117;28;86977;-49
2021/12/27 11:34:55;;;;;;;;;;;8.20;87.20;;;;;;5022943;28;89638;-45
2021/12/27 11:37:21;;;;;;;;;;;8.30;86.80;;;;;;5023202;28;87083;-45
2021/12/27 11:39:46;;;;;;;;;;;8.30;86.30;;;;;;5023096;28;88716;-45
2021/12/27 11:42:17;;;;;;;;;;;8.30;86.00;;;;;;5022529;28;89889;-47
2021/12/27 11:44:48;;;;;;;;;;;8.30;86.20;;;;;;5023127;28;86934;-45
2021/12/27 11:47:28;;;;;;;;;;;8.40;85.90;;;;;;5023083;28;88668;-44
2021/12/27 11:50:03;;;;;;;;;;;8.40;86.00;;;;;;5022775;28;89253;-43
2021/12/27 11:52:31;;;;;;;;;;;8.40;85.30;;;;;;5015221;28;87163;-41
2021/12/27 11:54:58;;;;;;;;;;;8.40;85.60;;;;;;5004712;28;88983;-43
2021/12/27 11:57:39;;;;;;;;;;;8.40;85.30;;;;;;5002810;28;87170;-44
2021/12/27 12:00:26;;;;;;;;;;;8.30;85.40;;;;;;5003105;28;87290;-45
2021/12/27 12:02:55;;;;;;;;;;;8.40;85.80;;;;;;4998329;28;89603;-43
2021/12/27 12:05:38;;;;;;;;;;;8.40;85.80;;;;;;5002153;28;87037;-43
2021/12/27 12:08:05;;;;;;;;;;;8.40;85.90;;;;;;5006136;28;89173;-45
2021/12/27 12:10:31;;;;;;;;;;;8.40;85.70;;;;;;5005719;28;89844;-54
2021/12/27 12:13:16;;;;;;;;;;;8.40;86.00;;;;;;5006756;28;86476;-51
2021/12/27 12:16:02;;;;;;;;;;;8.40;86.00;;;;;;5005699;28;88242;-55
2021/12/27 12:18:28;;;;;;;;;;;8.50;86.20;;;;;;5008063;28;89490;-57
2021/12/27 12:20:54;;;;;;;;;;;8.40;86.60;;;;;;5005393;28;88897;-54
2021/12/27 12:23:20;;;;;;;;;;;8.40;87.10;;;;;;5005756;28;88118;-55
2021/12/27 12:25:45;;;;;;;;;;;8.40;87.00;;;;;;5006176;28;87140;-54
2021/12/27 12:28:13;;;;;;;;;;;8.40;87.10;;;;;;5005728;28;88754;-53
2021/12/27 12:30:39;;;;;;;;;;;8.40;87.40;;;;;;5005637;28;89554;-50
2021/12/27 12:33:07;;;;;;;;;;;8.40;87.80;;;;;;5006077;28;87088;-55
2021/12/27 12:35:35;;;;;;;;;;;8.30;87.90;;;;;;5005872;28;89222;-51
2021/12/27 12:38:10;;;;;;;;;;;8.30;88.10;;;;;;5008897;28;88792;-48
2021/12/27 12:40:35;;;;;;;;;;;8.30;88.10;;;;;;5005561;28;86876;-51
2021/12/27 12:43:01;;;;;;;;;;;8.30;88.30;;;;;;5005409;28;89574;-52
2021/12/27 12:45:30;;;;;;;;;;;8.30;88.50;;;;;;5005349;28;88059;-54
2021/12/27 12:47:56;;;;;;;;;;;8.30;88.50;;;;;;5005440;28;89834;-50
2021/12/27 12:50:22;;;;;;;;;;;8.40;88.20;;;;;;5005238;28;89730;-48
2021/12/27 12:52:50;;;;;;;;;;;8.40;88.20;;;;;;5005643;28;87171;-51
2021/12/27 12:55:19;;;;;;;;;;;8.40;87.80;;;;;;5005445;28;88864;-51
2021/12/27 12:57:48;;;;;;;;;;;8.50;87.40;;;;;;5005145;28;89909;-48
2021/12/27 13:00:14;;;;;;;;;;;8.60;86.60;;;;;;5008375;28;86829;-46
2021/12/27 13:02:41;;;;;;;;;;;8.50;87.20;;;;;;5005688;28;88590;-46
2021/12/27 13:05:12;;;;;;;;;;;8.50;87.40;;;;;;5005370;28;87174;-45
2021/12/27 13:07:46;;;;;;;;;;;8.60;86.80;;;;;;5005027;28;88821;-47
2021/12/27 13:10:22;;;;;;;;;;;8.60;87.00;;;;;;5004001;28;90157;-46
2021/12/27 13:12:48;;;;;;;;;;;8.50;87.00;;;;;;5005189;28;87127;-45
2021/12/27 13:15:21;;;;;;;;;;;8.60;87.30;;;;;;5004662;28;89432;-48
2021/12/27 13:17:59;;;;;;;;;;;8.60;87.80;;;;;;5004462;28;89278;-45
2021/12/27 13:20:25;;;;;;;;;;;8.60;87.50;;;;;;5005051;28;87036;-45
2021/12/27 13:22:53;;;;;;;;;;;8.60;87.70;;;;;;5007493;28;89067;-47
2021/12/27 13:25:28;;;;;;;;;;;8.60;87.40;;;;;;5005106;28;86904;-46
2021/12/27 13:28:04;;;;;;;;;;;8.60;87.40;;;;;;5005584;28;88648;-42
2021/12/27 13:30:29;;;;;;;;;;;8.60;87.40;;;;;;5004703;28;88263;-42
2021/12/27 13:32:55;;;;;;;;;;;8.70;87.30;;;;;;5004748;28;87146;-42
2021/12/27 13:35:20;;;;;;;;;;;8.70;87.20;;;;;;5004267;28;88981;-44
2021/12/27 13:37:46;;;;;;;;;;;8.70;87.40;;;;;;5004283;28;89641;-44
2021/12/27 13:40:17;;;;;;;;;;;8.70;87.40;;;;;;5004855;28;87032;-46
2021/12/27 13:42:42;;;;;;;;;;;8.70;87.30;;;;;;5004855;28;88159;-44
2021/12/27 13:45:15;;;;;;;;;;;8.70;87.10;;;;;;5007339;28;89541;-44
2021/12/27 13:47:48;;;;;;;;;;;8.70;87.40;;;;;;5004587;28;88556;-43
2021/12/27 13:50:13;;;;;;;;;;;8.70;87.30;;;;;;5004424;28;89341;-42
2021/12/27 13:52:45;;;;;;;;;;;8.70;87.20;;;;;;5005300;28;86450;-46
2021/12/27 13:55:21;;;;;;;;;;;8.70;87.40;;;;;;5004479;28;88115;-43
2021/12/27 13:57:46;;;;;;;;;;;8.80;87.20;;;;;;5004210;28;88295;-43
2021/12/27 14:00:12;;;;;;;;;;;8.90;89.20;;;;;;5003549;28;88198;-43
2021/12/27 14:02:39;;;;;;;;;;;8.90;88.90;;;;;;5004485;28;89674;-42
2021/12/27 14:05:07;;;;;;;;;;;9.00;87.70;;;;;;5004165;28;89361;-43
2021/12/27 14:07:32;;;;;;;;;;;8.90;87.50;;;;;;5007187;28;87236;-45
2021/12/27 14:09:58;;;;;;;;;;;8.90;87.10;;;;;;5003852;28;88516;-49
2021/12/27 14:12:25;;;;;;;;;;;9.00;86.80;;;;;;5004638;28;87292;-44
2021/12/27 14:14:51;;;;;;;;;;;9.10;86.40;;;;;;5003770;28;88867;-40
2021/12/27 14:17:18;;;;;;;;;;;9.00;86.00;;;;;;5004506;28;88017;-45
2021/12/27 14:19:45;;;;;;;;;;;9.10;85.70;;;;;;5004113;28;86992;-48
2021/12/27 14:22:15;;;;;;;;;;;9.10;85.80;;;;;;5003905;28;89136;-50
2021/12/27 14:24:45;;;;;;;;;;;9.10;85.50;;;;;;5003087;28;90964;-47
2021/12/27 14:27:16;;;;;;;;;;;9.00;86.40;;;;;;5021297;28;87226;-48
2021/12/27 14:29:42;;;;;;;;;;;9.00;86.90;;;;;;5025955;28;86969;-51
2021/12/27 14:32:08;;;;;;;;;;;9.00;87.30;;;;;;5023868;28;87024;-49
2021/12/27 14:34:45;;;;;;;;;;;9.00;87.20;;;;;;5023930;28;88440;-45
2021/12/27 14:37:12;;;;;;;;;;;9.10;87.70;;;;;;5023770;28;89878;-56